Time;durP1;ratioP1;P1;durP2;ratioP2;P2;SDS_P1;SDS_P2;PMS_P1;PMS_P2;Temp;Humidity;BMP_temperature;BMP_pressure;BME280_temperature;BME280_humidity;BME280_pressure;Samples;Min_cycle;Max_cycle;Signal;HPM_P1;HPM_P2
2021/12/15 00:02:20;;;;;;;;;;;5.70;58.20;;;;;;5105297;27;19928;-72
2021/12/15 00:04:50;;;;;;;;;;;5.80;57.70;;;;;;5104543;28;20213;-72
2021/12/15 00:07:20;;;;;;;;;;;5.60;57.10;;;;;;5104797;28;19945;-72
2021/12/15 00:09:48;;;;;;;;;;;5.70;57.50;;;;;;5093102;27;19928;-71
2021/12/15 00:12:16;;;;;;;;;;;5.70;57.60;;;;;;5088350;28;20031;-71
2021/12/15 00:14:45;;;;;;;;;;;5.70;57.80;;;;;;5105706;28;19977;-72
2021/12/15 00:17:14;;;;;;;;;;;5.70;57.70;;;;;;5103413;28;19978;-72
2021/12/15 00:19:41;;;;;;;;;;;5.70;57.80;;;;;;5100789;27;20014;-71
2021/12/15 00:22:10;;;;;;;;;;;5.70;57.70;;;;;;5104813;27;20018;-70
2021/12/15 00:24:41;;;;;;;;;;;5.70;57.50;;;;;;5102524;27;20424;-71
2021/12/15 00:27:09;;;;;;;;;;;5.70;57.80;;;;;;5104390;28;20056;-71
2021/12/15 00:29:37;;;;;;;;;;;5.70;58.30;;;;;;5091196;28;20018;-70
2021/12/15 00:32:06;;;;;;;;;;;5.70;58.60;;;;;;5098653;28;20412;-71
2021/12/15 00:34:35;;;;;;;;;;;5.70;58.70;;;;;;5104283;28;19934;-71
2021/12/15 00:37:03;;;;;;;;;;;5.70;58.50;;;;;;5083575;28;19980;-70
2021/12/15 00:39:32;;;;;;;;;;;5.70;58.20;;;;;;5080423;28;19927;-70
2021/12/15 00:42:04;;;;;;;;;;;5.70;58.50;;;;;;5103619;28;19951;-71
2021/12/15 00:44:34;;;;;;;;;;;5.70;58.70;;;;;;5104362;27;19919;-71
2021/12/15 00:47:02;;;;;;;;;;;5.70;58.80;;;;;;5099407;28;19951;-71
2021/12/15 00:49:32;;;;;;;;;;;5.70;58.80;;;;;;5098528;28;20014;-71
2021/12/15 00:52:00;;;;;;;;;;;5.70;58.60;;;;;;5101893;28;19930;-71
2021/12/15 00:54:28;;;;;;;;;;;5.70;58.80;;;;;;5103331;28;20390;-71
2021/12/15 00:56:56;;;;;;;;;;;5.70;58.50;;;;;;5101247;28;19919;-71
2021/12/15 00:59:25;;;;;;;;;;;5.70;58.70;;;;;;5084203;28;19927;-71
2021/12/15 01:01:56;;;;;;;;;;;5.70;59.40;;;;;;5090432;28;19981;-72
2021/12/15 01:04:25;;;;;;;;;;;5.70;59.10;;;;;;5104566;27;19940;-72
2021/12/15 01:06:55;;;;;;;;;;;5.60;59.10;;;;;;5101725;27;19939;-72
2021/12/15 01:09:25;;;;;;;;;;;5.60;59.40;;;;;;5096931;27;19926;-72
2021/12/15 01:12:10;;;;;;;;;;;5.60;59.50;;;;;;5101703;27;19920;-72
2021/12/15 01:20:17;;;;;;;;;;;5.70;59.80;;;;;;5096722;28;20407;-71
2021/12/15 01:22:46;;;;;;;;;;;5.60;59.70;;;;;;5080445;28;19927;-71
2021/12/15 01:25:20;;;;;;;;;;;5.60;59.80;;;;;;5102437;28;19954;-71
2021/12/15 01:27:49;;;;;;;;;;;5.60;59.90;;;;;;5105944;27;19928;-71
2021/12/15 01:30:20;;;;;;;;;;;5.70;60.00;;;;;;5098887;28;20305;-71
2021/12/15 01:32:48;;;;;;;;;;;5.70;59.90;;;;;;5102575;28;19974;-71
2021/12/15 01:35:16;;;;;;;;;;;5.70;59.80;;;;;;5085940;28;20518;-72
2021/12/15 01:37:46;;;;;;;;;;;5.70;59.80;;;;;;5097138;27;20010;-71
2021/12/15 01:40:21;;;;;;;;;;;5.70;59.60;;;;;;5096623;28;20059;-72
2021/12/15 01:42:49;;;;;;;;;;;5.70;59.60;;;;;;5107045;28;19972;-72
2021/12/15 01:48:05;;;;;;;;;;;5.70;59.90;;;;;;5098029;27;19931;-71
2021/12/15 01:50:33;;;;;;;;;;;5.60;59.60;;;;;;5101165;28;19920;-71
2021/12/15 01:53:01;;;;;;;;;;;5.60;59.80;;;;;;5102483;28;20024;-71
2021/12/15 01:55:29;;;;;;;;;;;5.70;59.90;;;;;;5100990;28;19923;-71
2021/12/15 01:57:57;;;;;;;;;;;5.70;59.70;;;;;;5100201;28;19945;-72
2021/12/15 02:00:31;;;;;;;;;;;5.70;60.30;;;;;;5101620;28;19938;-72
2021/12/15 02:02:59;;;;;;;;;;;5.70;59.50;;;;;;5085151;28;19919;-71
2021/12/15 02:05:28;;;;;;;;;;;5.70;59.60;;;;;;5105271;28;19919;-71
2021/12/15 02:07:59;;;;;;;;;;;5.70;59.70;;;;;;5082251;28;19996;-72
2021/12/15 02:10:29;;;;;;;;;;;5.60;59.70;;;;;;5100533;28;20011;-71
2021/12/15 02:12:58;;;;;;;;;;;5.70;60.20;;;;;;5103683;28;19951;-72
2021/12/15 02:15:32;;;;;;;;;;;5.60;59.40;;;;;;5103355;28;19923;-71
2021/12/15 02:18:00;;;;;;;;;;;5.60;59.30;;;;;;5099566;28;19955;-71
2021/12/15 02:20:31;;;;;;;;;;;5.60;59.30;;;;;;5100820;27;19930;-71
2021/12/15 02:22:59;;;;;;;;;;;5.70;59.30;;;;;;5100773;28;21570;-71
2021/12/15 02:25:28;;;;;;;;;;;5.70;59.10;;;;;;5093326;28;20050;-71
2021/12/15 02:27:55;;;;;;;;;;;5.60;58.80;;;;;;5092259;28;20042;-72
2021/12/15 02:30:41;;;;;;;;;;;5.70;59.00;;;;;;5095934;28;19938;-71
2021/12/15 02:33:34;;;;;;;;;;;5.70;58.90;;;;;;5100602;28;19935;-71
2021/12/15 02:38:46;;;;;;;;;;;5.80;58.70;;;;;;5075096;28;20303;-72
2021/12/15 02:41:20;;;;;;;;;;;5.80;57.90;;;;;;5099606;28;19923;-72
2021/12/15 02:43:50;;;;;;;;;;;5.80;58.30;;;;;;5093137;28;19921;-72
2021/12/15 02:46:18;;;;;;;;;;;5.70;58.00;;;;;;5086576;28;19968;-72
2021/12/15 02:48:46;;;;;;;;;;;5.70;58.10;;;;;;5094768;28;20450;-71
2021/12/15 02:51:17;;;;;;;;;;;5.80;58.10;;;;;;5103860;28;19920;-71
2021/12/15 02:53:44;;;;;;;;;;;5.70;57.70;;;;;;5084357;28;19964;-71
2021/12/15 02:56:14;;;;;;;;;;;5.80;57.70;;;;;;5103060;28;20275;-71
2021/12/15 02:58:50;;;;;;;;;;;5.80;57.60;;;;;;5097570;28;19928;-71
2021/12/15 03:01:28;;;;;;;;;;;5.80;57.20;;;;;;5103652;28;19981;-71
2021/12/15 03:04:16;;;;;;;;;;;5.80;57.00;;;;;;5101473;28;19938;-71
2021/12/15 03:06:54;;;;;;;;;;;5.80;56.70;;;;;;5099127;28;20410;-71
2021/12/15 03:15:23;;;;;;;;;;;5.90;56.50;;;;;;5068786;28;19920;-71
2021/12/15 03:17:53;;;;;;;;;;;5.90;56.50;;;;;;5099876;27;19919;-72
2021/12/15 03:20:21;;;;;;;;;;;5.80;55.50;;;;;;5100639;27;19927;-72
2021/12/15 03:22:51;;;;;;;;;;;5.80;55.50;;;;;;5104184;28;19934;-72
2021/12/15 03:25:19;;;;;;;;;;;5.70;54.90;;;;;;5102041;27;19924;-72
2021/12/15 03:33:35;;;;;;;;;;;5.80;55.70;;;;;;5099089;28;20351;-71
2021/12/15 03:36:08;;;;;;;;;;;5.80;56.10;;;;;;5101655;28;19928;-71
2021/12/15 03:38:38;;;;;;;;;;;5.80;56.20;;;;;;5100084;27;19927;-71
2021/12/15 03:41:09;;;;;;;;;;;5.80;55.70;;;;;;5097496;27;20042;-71
2021/12/15 03:43:37;;;;;;;;;;;5.80;56.20;;;;;;5109039;28;19959;-71
2021/12/15 03:46:06;;;;;;;;;;;5.90;56.10;;;;;;5102446;27;19920;-72
2021/12/15 03:48:36;;;;;;;;;;;5.90;56.20;;;;;;5102135;27;19928;-72
2021/12/15 03:51:03;;;;;;;;;;;5.80;55.60;;;;;;5103853;28;20038;-72
2021/12/15 03:53:31;;;;;;;;;;;5.90;55.90;;;;;;5105592;28;20019;-72
2021/12/15 03:56:01;;;;;;;;;;;6.00;56.10;;;;;;5103825;27;19927;-72
2021/12/15 03:58:29;;;;;;;;;;;5.90;55.60;;;;;;5102929;28;19928;-71
2021/12/15 04:00:59;;;;;;;;;;;5.90;55.50;;;;;;5104293;27;20297;-72
2021/12/15 04:03:28;;;;;;;;;;;5.90;55.50;;;;;;5102919;27;20299;-72
2021/12/15 04:05:58;;;;;;;;;;;5.90;55.30;;;;;;5103596;28;19985;-71
2021/12/15 04:08:29;;;;;;;;;;;5.90;55.20;;;;;;5104110;27;19974;-72
2021/12/15 04:10:58;;;;;;;;;;;6.00;55.40;;;;;;5102319;28;20014;-73
2021/12/15 04:13:30;;;;;;;;;;;6.00;55.10;;;;;;5108509;27;19927;-71
2021/12/15 04:16:06;;;;;;;;;;;6.00;55.10;;;;;;5104811;28;20398;-71
2021/12/15 04:18:37;;;;;;;;;;;6.00;55.10;;;;;;5079956;28;20473;-71
2021/12/15 04:21:06;;;;;;;;;;;6.00;55.10;;;;;;5104558;28;19920;-71
2021/12/15 04:23:34;;;;;;;;;;;6.00;55.10;;;;;;5104834;28;19919;-71
2021/12/15 04:26:02;;;;;;;;;;;6.00;55.10;;;;;;5102698;28;19982;-73
2021/12/15 04:28:33;;;;;;;;;;;6.00;55.10;;;;;;5084242;28;19939;-71
2021/12/15 04:31:03;;;;;;;;;;;5.90;55.00;;;;;;5100597;28;19942;-71
2021/12/15 04:33:34;;;;;;;;;;;5.90;55.00;;;;;;5109064;27;19959;-71
2021/12/15 04:36:02;;;;;;;;;;;5.90;55.00;;;;;;5100276;28;19928;-70
2021/12/15 04:38:31;;;;;;;;;;;5.90;55.00;;;;;;5096632;27;20697;-70
2021/12/15 04:40:59;;;;;;;;;;;5.90;55.00;;;;;;5098373;28;19977;-71
2021/12/15 04:43:30;;;;;;;;;;;5.90;55.00;;;;;;5104144;28;19926;-71
2021/12/15 04:46:00;;;;;;;;;;;5.90;55.10;;;;;;5103575;28;19979;-71
2021/12/15 04:48:28;;;;;;;;;;;5.90;55.00;;;;;;5100557;28;19988;-71
2021/12/15 04:50:56;;;;;;;;;;;5.90;55.10;;;;;;5097807;28;19962;-71
2021/12/15 04:53:25;;;;;;;;;;;5.90;55.00;;;;;;5098453;27;20037;-70
2021/12/15 04:55:53;;;;;;;;;;;5.90;55.00;;;;;;5097856;27;19930;-72
2021/12/15 04:58:21;;;;;;;;;;;5.90;54.90;;;;;;5101357;28;19920;-71
2021/12/15 05:00:51;;;;;;;;;;;5.90;55.00;;;;;;5099728;27;19927;-72
2021/12/15 05:03:21;;;;;;;;;;;5.90;55.00;;;;;;5101982;27;19920;-72
2021/12/15 05:05:49;;;;;;;;;;;5.90;54.70;;;;;;5097202;28;19925;-72
2021/12/15 05:08:17;;;;;;;;;;;5.90;54.50;;;;;;5100436;28;19928;-72
2021/12/15 05:10:45;;;;;;;;;;;5.90;54.10;;;;;;5099602;28;20006;-72
2021/12/15 05:13:13;;;;;;;;;;;5.90;53.90;;;;;;5105153;27;20398;-72
2021/12/15 05:15:40;;;;;;;;;;;5.90;53.60;;;;;;5103013;28;19926;-72
2021/12/15 05:18:10;;;;;;;;;;;5.90;53.00;;;;;;5105023;27;19923;-71
2021/12/15 05:20:40;;;;;;;;;;;6.00;53.10;;;;;;5078629;28;19920;-72
2021/12/15 05:23:11;;;;;;;;;;;5.90;52.70;;;;;;5104661;27;19926;-72
2021/12/15 05:25:43;;;;;;;;;;;6.00;52.70;;;;;;5102250;28;19924;-71
2021/12/15 05:28:11;;;;;;;;;;;6.00;52.00;;;;;;5104200;27;19920;-72
2021/12/15 05:30:39;;;;;;;;;;;6.00;51.20;;;;;;5103103;27;19962;-72
2021/12/15 05:33:07;;;;;;;;;;;6.00;51.00;;;;;;5106008;28;20018;-72
2021/12/15 05:35:36;;;;;;;;;;;6.00;50.50;;;;;;5101856;28;20014;-72
2021/12/15 05:38:07;;;;;;;;;;;6.00;49.50;;;;;;5101928;27;20312;-71
2021/12/15 05:40:35;;;;;;;;;;;6.00;51.00;;;;;;5066708;28;19927;-72
2021/12/15 05:43:04;;;;;;;;;;;6.00;51.10;;;;;;5104516;28;20410;-71
2021/12/15 05:45:34;;;;;;;;;;;6.00;51.10;;;;;;5103456;28;20002;-72
2021/12/15 05:48:03;;;;;;;;;;;6.00;51.10;;;;;;5103139;28;19934;-71
2021/12/15 05:50:33;;;;;;;;;;;6.00;51.20;;;;;;5097143;28;19931;-72
2021/12/15 05:53:02;;;;;;;;;;;6.10;51.30;;;;;;5107307;27;20011;-72
2021/12/15 05:55:31;;;;;;;;;;;6.00;51.10;;;;;;5102863;28;19926;-72
2021/12/15 05:58:00;;;;;;;;;;;6.00;51.10;;;;;;5100690;27;19973;-72
2021/12/15 06:00:29;;;;;;;;;;;6.00;51.10;;;;;;5099394;28;20591;-71
2021/12/15 06:02:59;;;;;;;;;;;5.90;51.30;;;;;;5100642;28;19927;-71
2021/12/15 06:05:27;;;;;;;;;;;6.00;52.70;;;;;;5100703;28;19919;-71
2021/12/15 06:07:55;;;;;;;;;;;5.90;52.90;;;;;;5104669;27;19926;-70
2021/12/15 06:10:24;;;;;;;;;;;6.00;53.20;;;;;;5099477;28;19962;-70
2021/12/15 06:12:55;;;;;;;;;;;6.00;53.30;;;;;;5107125;28;19927;-71
2021/12/15 06:15:25;;;;;;;;;;;6.00;52.60;;;;;;5107116;28;20025;-70
2021/12/15 06:17:56;;;;;;;;;;;6.10;52.30;;;;;;5107495;28;20375;-71
2021/12/15 06:20:24;;;;;;;;;;;6.00;51.20;;;;;;5107330;27;19919;-71
2021/12/15 06:22:58;;;;;;;;;;;6.00;51.10;;;;;;5103789;28;20129;-71
2021/12/15 06:25:26;;;;;;;;;;;6.00;51.10;;;;;;5105159;28;20010;-71
2021/12/15 06:27:56;;;;;;;;;;;6.00;52.10;;;;;;5095671;28;19939;-71
2021/12/15 06:30:25;;;;;;;;;;;6.00;52.70;;;;;;5097464;28;19957;-71
2021/12/15 06:32:53;;;;;;;;;;;6.00;53.30;;;;;;5107373;28;20405;-71
2021/12/15 06:35:21;;;;;;;;;;;6.00;53.80;;;;;;5095337;28;20038;-71
2021/12/15 06:37:52;;;;;;;;;;;6.00;54.10;;;;;;5105191;28;19928;-72
2021/12/15 06:40:20;;;;;;;;;;;6.00;53.70;;;;;;5089368;28;19920;-72
2021/12/15 06:42:48;;;;;;;;;;;6.00;52.30;;;;;;5107549;28;20022;-72
2021/12/15 06:45:25;;;;;;;;;;;6.00;51.10;;;;;;5104123;28;20410;-72
2021/12/15 06:59:06;;;;;;;;;;;6.10;47.30;;;;;;5041679;28;19960;-71
2021/12/15 07:01:35;;;;;;;;;;;6.10;49.10;;;;;;5074019;28;20132;-72
2021/12/15 07:04:03;;;;;;;;;;;6.10;47.80;;;;;;5085057;28;20290;-71
2021/12/15 07:06:31;;;;;;;;;;;6.10;46.80;;;;;;5106226;28;19920;-72
2021/12/15 07:08:59;;;;;;;;;;;6.10;45.00;;;;;;5108420;28;19920;-71
2021/12/15 07:11:26;;;;;;;;;;;6.10;43.10;;;;;;5102968;28;19926;-71
2021/12/15 07:13:54;;;;;;;;;;;6.20;42.80;;;;;;5102640;28;20357;-70
2021/12/15 07:16:23;;;;;;;;;;;6.10;41.60;;;;;;5101689;27;20375;-71
2021/12/15 07:19:06;;;;;;;;;;;6.20;41.40;;;;;;5110395;28;20379;-72
2021/12/15 07:21:36;;;;;;;;;;;6.30;42.10;;;;;;5110627;28;19950;-72
2021/12/15 07:24:06;;;;;;;;;;;6.30;42.30;;;;;;5105323;28;19930;-71
2021/12/15 07:26:34;;;;;;;;;;;6.30;42.50;;;;;;5106653;28;20365;-71
2021/12/15 07:29:01;;;;;;;;;;;6.30;42.90;;;;;;5108004;28;19919;-72
2021/12/15 07:31:29;;;;;;;;;;;6.30;42.30;;;;;;5106589;28;20367;-72
2021/12/15 07:33:59;;;;;;;;;;;6.20;41.90;;;;;;5108398;28;19970;-73
2021/12/15 07:36:27;;;;;;;;;;;6.20;41.80;;;;;;5108145;28;19959;-71
2021/12/15 07:38:57;;;;;;;;;;;6.20;42.40;;;;;;5108481;27;19920;-71
2021/12/15 07:41:28;;;;;;;;;;;6.20;41.50;;;;;;5097018;27;19924;-71
2021/12/15 07:44:00;;;;;;;;;;;6.30;42.00;;;;;;5108210;28;20363;-70
2021/12/15 07:46:47;;;;;;;;;;;6.20;41.70;;;;;;5103918;28;19926;-71
2021/12/15 07:49:18;;;;;;;;;;;6.20;41.50;;;;;;5106551;28;19920;-71
2021/12/15 07:51:47;;;;;;;;;;;6.20;41.60;;;;;;5104266;27;19927;-71
2021/12/15 07:54:16;;;;;;;;;;;6.30;41.40;;;;;;5112545;27;19925;-71
2021/12/15 07:56:44;;;;;;;;;;;6.30;40.90;;;;;;5107479;28;19924;-71
2021/12/15 07:59:12;;;;;;;;;;;6.30;40.90;;;;;;5110094;28;19924;-70
2021/12/15 08:01:40;;;;;;;;;;;6.30;39.70;;;;;;5108318;27;19926;-70
2021/12/15 08:04:08;;;;;;;;;;;6.30;40.10;;;;;;5105307;28;19927;-71
2021/12/15 08:06:38;;;;;;;;;;;6.30;40.80;;;;;;5089212;28;19969;-71
2021/12/15 08:09:06;;;;;;;;;;;6.30;40.80;;;;;;5089349;28;19926;-71
2021/12/15 08:11:35;;;;;;;;;;;6.30;41.40;;;;;;5107112;28;20446;-71
2021/12/15 08:14:03;;;;;;;;;;;6.30;40.60;;;;;;5103397;28;19920;-71
2021/12/15 08:16:31;;;;;;;;;;;6.40;40.70;;;;;;5109322;28;19920;-71
2021/12/15 08:19:05;;;;;;;;;;;6.40;40.60;;;;;;5104949;28;19973;-72
2021/12/15 08:21:33;;;;;;;;;;;6.40;40.70;;;;;;5085686;28;19920;-72
2021/12/15 08:24:02;;;;;;;;;;;6.40;40.70;;;;;;5105809;28;20015;-71
2021/12/15 08:26:33;;;;;;;;;;;6.40;40.30;;;;;;5103836;27;19999;-72
2021/12/15 08:29:01;;;;;;;;;;;6.40;40.20;;;;;;5098164;27;20007;-71
2021/12/15 08:31:29;;;;;;;;;;;6.40;39.50;;;;;;5110965;28;19920;-71
2021/12/15 08:33:57;;;;;;;;;;;6.40;39.30;;;;;;5105202;28;20375;-71
2021/12/15 08:36:27;;;;;;;;;;;6.30;39.20;;;;;;5108468;28;19919;-72
2021/12/15 08:38:55;;;;;;;;;;;6.30;39.40;;;;;;5107680;27;20297;-72
2021/12/15 08:41:26;;;;;;;;;;;6.40;40.50;;;;;;5093514;28;19973;-71
2021/12/15 08:43:54;;;;;;;;;;;6.40;39.40;;;;;;5088966;28;19935;-71
2021/12/15 08:46:24;;;;;;;;;;;6.40;39.80;;;;;;5095129;28;20423;-72
2021/12/15 08:48:53;;;;;;;;;;;6.50;40.40;;;;;;5103274;28;19927;-71
2021/12/15 08:51:25;;;;;;;;;;;6.50;40.00;;;;;;5107247;28;20051;-71
2021/12/15 08:53:53;;;;;;;;;;;6.50;39.20;;;;;;5107604;27;19926;-71
2021/12/15 08:56:21;;;;;;;;;;;6.50;39.70;;;;;;5088582;28;19928;-71
2021/12/15 08:58:50;;;;;;;;;;;6.50;39.30;;;;;;5108945;28;19949;-71
2021/12/15 09:01:18;;;;;;;;;;;6.50;39.70;;;;;;5101330;28;19919;-72
2021/12/15 09:03:46;;;;;;;;;;;6.50;38.00;;;;;;5098988;28;19930;-70
2021/12/15 09:06:15;;;;;;;;;;;6.40;36.70;;;;;;5094462;28;20394;-71
2021/12/15 09:08:44;;;;;;;;;;;6.40;37.00;;;;;;5107380;28;19985;-71
2021/12/15 09:11:14;;;;;;;;;;;6.40;36.10;;;;;;5097119;28;19952;-71
2021/12/15 09:13:43;;;;;;;;;;;6.50;37.80;;;;;;5106051;28;19919;-71
2021/12/15 09:16:12;;;;;;;;;;;6.50;36.90;;;;;;5090611;28;20064;-71
2021/12/15 09:18:44;;;;;;;;;;;6.50;35.30;;;;;;5109087;28;19920;-71
2021/12/15 09:21:14;;;;;;;;;;;6.50;36.00;;;;;;5102775;28;19926;-71
2021/12/15 09:23:42;;;;;;;;;;;6.60;35.20;;;;;;5096332;27;20590;-72
2021/12/15 09:26:10;;;;;;;;;;;6.60;35.10;;;;;;5107898;27;20023;-72
2021/12/15 09:28:38;;;;;;;;;;;6.60;35.20;;;;;;5106720;28;19924;-72
2021/12/15 09:31:07;;;;;;;;;;;6.60;34.50;;;;;;5101968;28;19966;-70
2021/12/15 09:33:43;;;;;;;;;;;6.60;34.50;;;;;;5104629;28;19939;-70
2021/12/15 09:36:12;;;;;;;;;;;6.70;35.20;;;;;;5103478;28;20359;-70
2021/12/15 09:38:40;;;;;;;;;;;6.70;34.10;;;;;;5106709;28;20375;-70
2021/12/15 09:41:09;;;;;;;;;;;6.70;34.00;;;;;;5105706;28;20399;-71
2021/12/15 09:43:37;;;;;;;;;;;6.70;34.80;;;;;;5103509;28;20037;-71
2021/12/15 09:46:30;;;;;;;;;;;6.60;35.10;;;;;;5100825;28;19947;-71
2021/12/15 09:57:26;;;;;;;;;;;6.70;31.00;;;;;;5105351;27;19919;-72
2021/12/15 10:02:58;;;;;;;;;;;6.60;30.80;;;;;;5060667;28;19929;-71
2021/12/15 10:05:43;;;;;;;;;;;6.60;30.90;;;;;;5091801;28;19955;-72
2021/12/15 10:19:19;;;;;;;;;;;6.70;29.70;;;;;;5103592;28;19930;-71
2021/12/15 10:22:00;;;;;;;;;;;6.80;28.70;;;;;;5104641;28;20393;-72
2021/12/15 10:24:29;;;;;;;;;;;6.70;28.50;;;;;;5066843;28;20309;-71
2021/12/15 10:26:58;;;;;;;;;;;6.70;28.50;;;;;;5101867;28;19924;-71
2021/12/15 10:29:26;;;;;;;;;;;6.80;29.10;;;;;;5104947;28;20039;-71
2021/12/15 10:31:58;;;;;;;;;;;6.80;27.60;;;;;;5106970;28;20379;-72
2021/12/15 10:34:26;;;;;;;;;;;6.80;27.50;;;;;;5095650;28;19936;-71
2021/12/15 10:37:05;;;;;;;;;;;6.90;27.40;;;;;;5102842;28;20356;-71
2021/12/15 10:39:33;;;;;;;;;;;7.00;25.50;;;;;;5087098;28;19947;-72
2021/12/15 10:42:00;;;;;;;;;;;6.90;25.70;;;;;;5096189;28;19919;-72
2021/12/15 10:44:28;;;;;;;;;;;6.90;26.30;;;;;;5104583;28;19965;-72
2021/12/15 10:46:57;;;;;;;;;;;6.90;25.90;;;;;;5099620;28;19920;-71
2021/12/15 10:49:27;;;;;;;;;;;7.00;24.80;;;;;;5094661;28;20336;-72
2021/12/15 10:51:57;;;;;;;;;;;7.00;25.10;;;;;;5101508;28;20015;-72
2021/12/15 10:54:29;;;;;;;;;;;6.90;22.60;;;;;;5098395;28;19977;-71
2021/12/15 10:56:58;;;;;;;;;;;6.90;23.70;;;;;;5102147;28;19935;-71
2021/12/15 10:59:28;;;;;;;;;;;6.90;25.00;;;;;;5096638;28;19923;-71
2021/12/15 11:01:57;;;;;;;;;;;7.00;22.60;;;;;;5067159;28;19928;-73
2021/12/15 11:04:33;;;;;;;;;;;6.90;21.80;;;;;;5099469;28;19920;-72
2021/12/15 11:07:04;;;;;;;;;;;6.80;22.50;;;;;;5100567;28;19919;-72
2021/12/15 11:09:39;;;;;;;;;;;6.90;20.80;;;;;;5103058;28;19926;-71
2021/12/15 11:12:13;;;;;;;;;;;6.90;21.80;;;;;;5104265;28;19924;-72
2021/12/15 11:14:45;;;;;;;;;;;7.00;20.90;;;;;;5079870;28;19920;-73
2021/12/15 11:17:15;;;;;;;;;;;6.90;20.40;;;;;;5101911;28;19920;-72
2021/12/15 11:19:48;;;;;;;;;;;7.00;21.50;;;;;;5098895;28;19974;-71
2021/12/15 11:22:32;;;;;;;;;;;6.90;20.50;;;;;;5079747;28;19920;-70
2021/12/15 11:25:03;;;;;;;;;;;7.00;20.90;;;;;;5085743;28;19946;-71
2021/12/15 11:27:31;;;;;;;;;;;7.10;20.90;;;;;;5099644;28;19934;-71
2021/12/15 11:30:01;;;;;;;;;;;7.00;18.20;;;;;;5095507;28;19998;-72
2021/12/15 11:32:36;;;;;;;;;;;6.90;19.20;;;;;;5096402;28;19927;-71
2021/12/15 11:35:06;;;;;;;;;;;6.90;20.80;;;;;;5103957;27;19923;-71
2021/12/15 11:37:48;;;;;;;;;;;6.90;19.50;;;;;;5102951;28;19920;-71
2021/12/15 11:40:22;;;;;;;;;;;6.80;19.00;;;;;;5105864;27;19927;-72
2021/12/15 11:42:51;;;;;;;;;;;6.80;18.40;;;;;;5103570;28;20295;-71
2021/12/15 11:45:19;;;;;;;;;;;6.90;19.70;;;;;;5097168;27;19999;-71
2021/12/15 11:47:47;;;;;;;;;;;6.90;19.50;;;;;;5103790;27;19930;-70
2021/12/15 11:50:17;;;;;;;;;;;6.90;19.20;;;;;;5100808;28;20019;-71
2021/12/15 11:52:47;;;;;;;;;;;6.80;19.00;;;;;;5100606;28;19920;-71
2021/12/15 11:55:26;;;;;;;;;;;6.80;19.10;;;;;;5102308;27;19930;-71
2021/12/15 11:57:55;;;;;;;;;;;6.80;20.30;;;;;;5085676;28;19928;-70
2021/12/15 12:00:28;;;;;;;;;;;6.80;19.70;;;;;;5105304;27;20043;-73
2021/12/15 12:02:58;;;;;;;;;;;6.70;18.30;;;;;;5105013;27;19954;-71
2021/12/15 12:05:32;;;;;;;;;;;6.70;18.80;;;;;;5097594;28;20321;-71
2021/12/15 12:08:01;;;;;;;;;;;6.70;20.10;;;;;;5107060;27;19920;-71
2021/12/15 12:10:42;;;;;;;;;;;6.80;20.00;;;;;;5106857;28;19926;-71
2021/12/15 12:13:20;;;;;;;;;;;6.70;18.70;;;;;;5099689;28;19975;-71
2021/12/15 12:15:50;;;;;;;;;;;6.70;18.90;;;;;;5098192;27;19920;-71
2021/12/15 12:18:21;;;;;;;;;;;6.70;18.60;;;;;;5106737;27;19924;-71
2021/12/15 12:20:50;;;;;;;;;;;6.80;18.80;;;;;;5103823;28;19920;-70
2021/12/15 12:23:19;;;;;;;;;;;6.80;18.00;;;;;;5106505;27;20431;-71
2021/12/15 12:25:50;;;;;;;;;;;6.80;18.50;;;;;;5100577;27;19928;-71
2021/12/15 12:28:20;;;;;;;;;;;6.80;19.30;;;;;;5083148;28;19927;-70
2021/12/15 12:30:49;;;;;;;;;;;6.80;18.90;;;;;;5105141;28;19924;-71
2021/12/15 12:33:21;;;;;;;;;;;6.60;18.50;;;;;;5104632;27;20389;-71
2021/12/15 12:35:52;;;;;;;;;;;6.70;19.30;;;;;;5099006;27;19920;-71
2021/12/15 12:38:21;;;;;;;;;;;6.60;18.50;;;;;;5106705;27;19924;-71
2021/12/15 12:40:54;;;;;;;;;;;6.60;19.00;;;;;;5101023;28;19923;-71
2021/12/15 12:43:25;;;;;;;;;;;6.60;18.50;;;;;;5107421;27;19919;-72
2021/12/15 12:46:04;;;;;;;;;;;6.70;18.50;;;;;;5075382;28;20298;-71
2021/12/15 12:48:45;;;;;;;;;;;6.60;18.10;;;;;;5102542;28;19926;-72
2021/12/15 13:00:00;;;;;;;;;;;6.60;17.20;;;;;;5102212;27;20015;-71
2021/12/15 13:02:39;;;;;;;;;;;6.60;17.90;;;;;;5109021;27;19934;-71
2021/12/15 13:05:25;;;;;;;;;;;6.70;17.20;;;;;;5100425;27;20006;-72
2021/12/15 13:07:55;;;;;;;;;;;6.60;17.40;;;;;;5091855;28;20260;-72
2021/12/15 13:10:41;;;;;;;;;;;6.60;17.20;;;;;;5098036;28;19942;-71
2021/12/15 13:13:12;;;;;;;;;;;6.60;18.10;;;;;;5085064;28;19949;-72
2021/12/15 13:15:40;;;;;;;;;;;6.60;17.50;;;;;;5097662;27;19920;-71
2021/12/15 13:18:12;;;;;;;;;;;6.50;17.80;;;;;;5102963;28;19974;-70
2021/12/15 13:20:52;;;;;;;;;;;6.60;18.00;;;;;;5104817;27;19935;-72
2021/12/15 13:23:37;;;;;;;;;;;6.60;17.40;;;;;;5104023;27;19958;-70
2021/12/15 13:29:15;;;;;;;;;;;6.40;18.00;;;;;;5103693;28;20022;-69
2021/12/15 13:31:53;;;;;;;;;;;6.40;17.80;;;;;;5082266;28;20007;-71
2021/12/15 13:34:34;;;;;;;;;;;6.50;18.80;;;;;;5098239;28;20017;-73
2021/12/15 13:37:03;;;;;;;;;;;6.40;17.00;;;;;;5100079;28;19995;-71
2021/12/15 13:39:42;;;;;;;;;;;6.30;18.40;;;;;;5102843;28;20441;-71
2021/12/15 13:42:14;;;;;;;;;;;6.30;19.00;;;;;;5102511;28;19924;-71
2021/12/15 13:44:43;;;;;;;;;;;6.20;18.60;;;;;;5075711;27;19923;-70
2021/12/15 13:47:17;;;;;;;;;;;6.30;19.30;;;;;;5098157;28;19935;-71
2021/12/15 13:49:46;;;;;;;;;;;6.30;19.50;;;;;;5101037;27;19920;-72
2021/12/15 13:52:19;;;;;;;;;;;6.20;20.30;;;;;;5089839;27;19923;-70
2021/12/15 13:55:05;;;;;;;;;;;6.30;20.30;;;;;;5096384;28;19950;-71
2021/12/15 13:57:35;;;;;;;;;;;6.40;19.40;;;;;;5104352;28;20436;-71
2021/12/15 14:00:11;;;;;;;;;;;6.30;19.50;;;;;;5104421;27;20310;-71
2021/12/15 14:02:42;;;;;;;;;;;6.30;20.40;;;;;;5102834;27;19970;-71
2021/12/15 14:05:21;;;;;;;;;;;6.40;20.10;;;;;;5092850;28;19928;-70
2021/12/15 14:07:52;;;;;;;;;;;6.30;19.10;;;;;;5099950;28;20239;-70
2021/12/15 14:10:39;;;;;;;;;;;6.20;19.20;;;;;;5103241;27;19928;-71
2021/12/15 14:13:12;;;;;;;;;;;6.20;19.00;;;;;;5100877;28;19929;-71
2021/12/15 14:15:48;;;;;;;;;;;6.30;20.00;;;;;;5099987;27;19948;-70
2021/12/15 14:18:19;;;;;;;;;;;6.30;19.40;;;;;;5103506;28;20022;-71
2021/12/15 14:20:52;;;;;;;;;;;6.30;20.10;;;;;;5105360;27;20006;-72
2021/12/15 14:23:24;;;;;;;;;;;6.30;19.40;;;;;;5103357;28;20398;-71
2021/12/15 14:25:52;;;;;;;;;;;6.30;19.10;;;;;;5098055;27;19919;-70
2021/12/15 14:28:23;;;;;;;;;;;6.30;18.80;;;;;;5105676;28;19981;-72
2021/12/15 14:30:53;;;;;;;;;;;6.20;20.30;;;;;;5101145;28;20014;-71
2021/12/15 14:33:23;;;;;;;;;;;6.10;19.70;;;;;;5101680;28;20523;-71
2021/12/15 14:35:54;;;;;;;;;;;6.10;20.00;;;;;;5097205;28;19962;-70
2021/12/15 14:38:35;;;;;;;;;;;6.00;20.30;;;;;;5099679;28;19924;-70
2021/12/15 14:41:13;;;;;;;;;;;6.00;20.20;;;;;;5100847;28;19932;-71
2021/12/15 14:43:47;;;;;;;;;;;6.10;20.30;;;;;;5092973;28;19920;-70
2021/12/15 14:46:17;;;;;;;;;;;6.10;19.50;;;;;;5096327;28;19919;-71
2021/12/15 14:48:46;;;;;;;;;;;6.10;19.10;;;;;;5080078;28;19951;-71
2021/12/15 14:51:21;;;;;;;;;;;6.10;19.50;;;;;;5099536;28;19978;-70
2021/12/15 14:53:49;;;;;;;;;;;6.10;20.30;;;;;;5097142;28;20378;-71
2021/12/15 14:56:18;;;;;;;;;;;6.10;20.30;;;;;;5096009;28;20291;-71
2021/12/15 14:58:46;;;;;;;;;;;6.10;19.50;;;;;;5070010;28;19934;-72
2021/12/15 15:01:15;;;;;;;;;;;6.00;20.30;;;;;;5102644;28;19951;-70
2021/12/15 15:04:01;;;;;;;;;;;6.00;20.20;;;;;;5101984;28;20396;-71
2021/12/15 15:06:33;;;;;;;;;;;6.10;20.00;;;;;;5074342;28;19962;-71
2021/12/15 15:09:18;;;;;;;;;;;6.00;20.20;;;;;;5105209;28;19968;-70
2021/12/15 15:11:57;;;;;;;;;;;5.90;20.20;;;;;;5086364;28;19920;-70
2021/12/15 15:14:27;;;;;;;;;;;6.00;20.60;;;;;;5102443;27;19948;-70
2021/12/15 15:16:55;;;;;;;;;;;6.00;20.90;;;;;;5106086;27;20391;-71
2021/12/15 15:19:23;;;;;;;;;;;5.90;20.60;;;;;;5106511;28;19947;-71
2021/12/15 15:21:55;;;;;;;;;;;5.90;21.20;;;;;;5107880;27;19923;-71
2021/12/15 15:24:25;;;;;;;;;;;6.00;21.10;;;;;;5102728;28;20015;-71
2021/12/15 15:26:54;;;;;;;;;;;5.90;20.70;;;;;;5102520;28;19966;-70
2021/12/15 15:29:28;;;;;;;;;;;5.90;21.30;;;;;;5106105;28;19920;-71
2021/12/15 15:31:56;;;;;;;;;;;5.80;20.90;;;;;;5088059;27;19942;-71
2021/12/15 15:34:25;;;;;;;;;;;5.80;21.10;;;;;;5104075;28;19919;-71
2021/12/15 15:36:55;;;;;;;;;;;5.80;21.40;;;;;;5108019;27;20002;-72
2021/12/15 15:39:23;;;;;;;;;;;5.80;21.70;;;;;;5102769;27;19960;-71
2021/12/15 15:41:51;;;;;;;;;;;5.80;21.50;;;;;;5101230;27;20290;-71
2021/12/15 15:44:19;;;;;;;;;;;5.70;20.90;;;;;;5102592;28;20307;-70
2021/12/15 15:46:54;;;;;;;;;;;5.80;21.10;;;;;;5098346;28;20064;-70
2021/12/15 15:49:23;;;;;;;;;;;5.80;21.70;;;;;;5103303;28;20014;-71
2021/12/15 15:51:53;;;;;;;;;;;5.80;21.00;;;;;;5104684;28;19920;-71
2021/12/15 15:54:28;;;;;;;;;;;5.80;21.60;;;;;;5065479;28;19927;-72
2021/12/15 15:57:01;;;;;;;;;;;5.90;21.40;;;;;;5103002;27;20026;-71
2021/12/15 15:59:30;;;;;;;;;;;5.80;20.60;;;;;;5105958;28;19920;-71
2021/12/15 16:02:03;;;;;;;;;;;5.80;21.30;;;;;;5094829;28;20003;-72